createdAt,value
2022-10-23T00:00:20.990Z,60.88
2022-10-23T00:03:23.279Z,55.05
2022-10-23T00:06:26.499Z,57.00
2022-10-23T00:09:29.369Z,65.30
2022-10-23T00:12:32.390Z,61.40
2022-10-23T00:15:35.906Z,65.32
2022-10-23T00:18:39.129Z,62.33
2022-10-23T00:21:41.560Z,64.68
2022-10-23T00:24:43.708Z,56.17
2022-10-23T00:27:45.943Z,68.00
2022-10-23T00:30:48.343Z,72.60
2022-10-23T00:33:52.205Z,72.43
2022-10-23T00:36:54.331Z,65.63
2022-10-23T00:39:56.593Z,72.87
2022-10-23T00:42:58.755Z,65.93
2022-10-23T00:46:01.121Z,54.75
2022-10-23T00:49:04.170Z,53.97
2022-10-23T00:52:08.509Z,61.42
2022-10-23T00:55:11.100Z,54.47
2022-10-23T00:58:15.035Z,61.93
2022-10-23T01:01:20.341Z,80.20
2022-10-23T01:04:23.099Z,74.88
2022-10-23T01:07:43.784Z,70.25
2022-10-23T01:11:25.836Z,72.37
2022-10-23T01:14:43.885Z,68.97
2022-10-23T01:18:00.031Z,73.95
2022-10-23T01:21:38.367Z,72.32
2022-10-23T01:24:40.459Z,70.50
2022-10-23T01:27:47.112Z,67.47
2022-10-23T01:30:49.853Z,67.00
2022-10-23T01:33:57.899Z,71.30
2022-10-23T01:37:04.203Z,64.32
2022-10-23T01:40:09.979Z,61.53
2022-10-23T01:43:25.686Z,52.33
2022-10-23T01:46:28.479Z,55.47
2022-10-23T01:49:31.616Z,56.25
2022-10-23T01:52:34.069Z,58.90
2022-10-23T01:58:55.267Z,67.37
2022-10-23T02:01:59.888Z,60.87
2022-10-23T02:05:26.752Z,55.55
2022-10-23T02:08:31.032Z,53.35
2022-10-23T02:11:39.489Z,52.92
2022-10-23T02:15:04.082Z,50.10
2022-10-23T02:18:07.944Z,48.83
2022-10-23T02:21:13.732Z,57.55
2022-10-23T02:24:19.928Z,53.22
2022-10-23T02:27:27.182Z,53.58
2022-10-23T02:30:33.074Z,57.07
2022-10-23T02:33:45.696Z,46.37
2022-10-23T02:36:48.048Z,53.05
2022-10-23T02:39:50.337Z,52.72
2022-10-23T02:42:58.487Z,49.40
2022-10-23T02:46:15.037Z,59.00
2022-10-23T02:50:06.827Z,57.67
2022-10-23T02:53:20.092Z,56.10
2022-10-23T02:56:37.971Z,55.00
2022-10-23T03:00:14.682Z,60.17
2022-10-23T03:03:24.856Z,49.30
2022-10-23T03:06:27.054Z,42.87
2022-10-23T03:09:29.777Z,46.85
2022-10-23T03:12:32.167Z,51.42
2022-10-23T03:15:34.659Z,49.70
2022-10-23T03:18:36.836Z,43.97
2022-10-23T03:21:39.031Z,54.50
2022-10-23T03:24:43.458Z,56.58
2022-10-23T03:27:45.590Z,58.90
2022-10-23T03:30:50.886Z,55.63
2022-10-23T03:33:53.284Z,58.80
2022-10-23T03:36:56.696Z,60.30
2022-10-23T03:39:58.873Z,56.50
2022-10-23T03:43:01.070Z,51.63
2022-10-23T03:46:09.272Z,52.20
2022-10-23T03:49:11.491Z,56.03
2022-10-23T03:52:17.914Z,58.00
2022-10-23T03:55:20.110Z,59.85
2022-10-23T03:58:22.276Z,56.45
2022-10-23T04:01:24.634Z,60.03
2022-10-23T04:04:26.908Z,61.60
2022-10-23T04:07:32.049Z,64.77
2022-10-23T04:10:36.826Z,67.03
2022-10-23T04:13:38.944Z,61.95
2022-10-23T04:16:41.371Z,63.13
2022-10-23T04:19:44.095Z,62.50
2022-10-23T04:22:46.751Z,57.27
2022-10-23T04:25:49.046Z,68.28
2022-10-23T04:28:51.320Z,63.55
2022-10-23T04:31:53.437Z,55.78
2022-10-23T04:34:55.642Z,62.60
2022-10-23T04:37:58.690Z,62.43
2022-10-23T04:41:00.920Z,67.70
2022-10-23T04:44:04.016Z,65.18
2022-10-23T04:47:08.731Z,65.95
2022-10-23T04:50:20.934Z,55.67
2022-10-23T04:53:47.060Z,51.10
2022-10-23T04:57:00.895Z,52.67
2022-10-23T05:00:12.243Z,49.75
2022-10-23T05:03:29.141Z,49.92
2022-10-23T05:06:31.336Z,53.53
2022-10-23T05:10:06.442Z,53.07
2022-10-23T05:13:23.901Z,49.05
2022-10-23T05:16:50.846Z,49.47
2022-10-23T05:19:56.572Z,48.25
2022-10-23T05:23:00.403Z,53.07
2022-10-23T05:26:04.460Z,47.37
2022-10-23T05:29:07.507Z,57.38
2022-10-23T05:32:10.910Z,56.92
2022-10-23T05:35:16.729Z,49.50
2022-10-23T05:38:22.817Z,48.93
2022-10-23T05:41:25.141Z,46.17
2022-10-23T05:44:32.025Z,48.80
2022-10-23T05:47:49.123Z,59.80
2022-10-23T05:51:07.824Z,76.30
2022-10-23T05:54:37.032Z,90.17
2022-10-23T05:58:03.569Z,242.30
2022-10-23T06:01:26.851Z,271.98
2022-10-23T06:04:40.792Z,242.63
2022-10-23T06:07:46.663Z,199.38
2022-10-23T06:10:49.841Z,209.30
2022-10-23T06:13:52.999Z,157.93
2022-10-23T06:16:57.252Z,152.05
2022-10-23T06:20:02.597Z,140.65
2022-10-23T06:23:10.105Z,149.35
2022-10-23T06:26:33.162Z,115.40
2022-10-23T06:29:43.870Z,159.90
2022-10-23T06:32:49.860Z,111.70
2022-10-23T06:35:52.168Z,101.60
2022-10-23T06:38:56.432Z,96.63
2022-10-23T06:42:05.563Z,76.30
2022-10-23T06:45:34.316Z,65.03
2022-10-23T06:48:48.496Z,71.82
2022-10-23T06:51:57.311Z,57.22
2022-10-23T06:54:59.738Z,42.15
2022-10-23T06:58:10.747Z,61.43
2022-10-23T07:01:24.209Z,57.03
2022-10-23T07:04:26.743Z,65.80
2022-10-23T07:07:30.589Z,102.18
2022-10-23T07:10:33.222Z,138.43
2022-10-23T07:13:39.939Z,123.97
2022-10-23T07:16:49.806Z,130.60
2022-10-23T07:19:52.321Z,119.45
2022-10-23T07:22:56.487Z,85.22
2022-10-23T07:26:10.385Z,188.02
2022-10-23T07:29:13.203Z,95.40
2022-10-23T07:32:15.465Z,88.57
2022-10-23T07:35:38.576Z,348.65
2022-10-23T07:38:45.788Z,143.10
2022-10-23T07:41:48.500Z,302.70
2022-10-23T07:44:50.730Z,196.00
2022-10-23T07:47:53.188Z,83.43
2022-10-23T07:51:01.540Z,113.82
2022-10-23T07:54:04.397Z,87.00
2022-10-23T07:57:26.832Z,175.68
2022-10-23T08:00:42.682Z,87.93
2022-10-23T08:03:59.839Z,150.20
2022-10-23T08:07:02.645Z,262.65
2022-10-23T08:10:11.469Z,88.70
2022-10-23T08:13:17.335Z,149.68
2022-10-23T08:16:32.575Z,54.67
2022-10-23T08:20:03.961Z,48.77
2022-10-23T08:23:17.042Z,62.05
2022-10-23T08:26:19.580Z,56.85
2022-10-23T08:29:22.106Z,47.22
2022-10-23T08:32:24.830Z,46.67
2022-10-23T08:35:30.684Z,43.03
2022-10-23T08:38:33.910Z,44.92
2022-10-23T08:41:38.958Z,48.30
2022-10-23T08:44:56.234Z,48.15
2022-10-23T08:48:04.654Z,46.60
2022-10-23T08:51:40.364Z,44.53
2022-10-23T08:55:12.252Z,41.80
2022-10-23T08:58:23.653Z,41.72
2022-10-23T09:01:33.374Z,42.15
2022-10-23T09:04:35.580Z,41.57
2022-10-23T09:07:49.025Z,40.80
2022-10-23T09:11:12.835Z,41.38
2022-10-23T09:14:52.746Z,44.30
2022-10-23T09:18:01.281Z,41.70
2022-10-23T09:21:11.068Z,43.30
2022-10-23T09:24:17.923Z,43.40
2022-10-23T09:27:20.277Z,46.60
2022-10-23T09:30:42.651Z,46.90
2022-10-23T09:34:00.949Z,48.22
2022-10-23T09:37:27.391Z,49.23
2022-10-23T09:40:30.012Z,47.93
2022-10-23T09:43:32.367Z,50.65
2022-10-23T09:46:47.263Z,53.38
2022-10-23T09:49:52.376Z,49.45
2022-10-23T09:52:55.430Z,57.43
2022-10-23T09:56:01.083Z,54.73
2022-10-23T09:59:12.293Z,56.50
2022-10-23T10:02:28.819Z,58.75
2022-10-23T10:06:03.565Z,57.95
2022-10-23T10:09:10.786Z,54.57
2022-10-23T10:12:23.057Z,54.33
2022-10-23T10:15:43.419Z,57.63
2022-10-23T10:19:20.272Z,55.67
2022-10-23T10:22:49.243Z,55.30
2022-10-23T10:26:03.500Z,50.83
2022-10-23T10:29:24.074Z,53.40
2022-10-23T10:32:48.050Z,50.80
2022-10-23T10:36:09.600Z,50.42
2022-10-23T10:39:35.486Z,43.20
2022-10-23T10:42:44.050Z,32.07
2022-10-23T10:45:49.512Z,37.60
2022-10-23T10:49:14.175Z,29.55
2022-10-23T10:52:50.929Z,32.63
2022-10-23T10:55:55.680Z,33.67
2022-10-23T10:59:05.224Z,29.33
2022-10-23T11:02:29.738Z,28.03
2022-10-23T11:05:35.174Z,25.15
2022-10-23T11:08:56.387Z,23.55
2022-10-23T11:12:00.560Z,23.13
2022-10-23T11:15:03.546Z,22.10
2022-10-23T11:18:13.139Z,20.50
2022-10-23T11:21:36.966Z,42.38
2022-10-23T11:25:12.602Z,19.83
2022-10-23T11:28:14.745Z,43.83
2022-10-23T11:31:36.954Z,21.67
2022-10-23T11:35:04.181Z,18.57
2022-10-23T11:38:12.627Z,21.33
2022-10-23T11:41:27.234Z,15.93
2022-10-23T11:44:36.973Z,16.63
2022-10-23T11:47:40.807Z,17.30
2022-10-23T11:50:46.184Z,17.07
2022-10-23T11:53:48.521Z,16.23
2022-10-23T11:56:53.572Z,15.57
2022-10-23T11:59:56.555Z,19.08
2022-10-23T12:02:59.435Z,20.00
2022-10-23T12:06:04.574Z,38.10
2022-10-23T12:09:43.105Z,16.00
2022-10-23T12:12:56.669Z,15.70
2022-10-23T12:16:00.890Z,15.20
2022-10-23T12:19:19.068Z,16.97
2022-10-23T12:22:25.952Z,17.27
2022-10-23T12:25:44.138Z,15.25
2022-10-23T12:28:49.500Z,17.35
2022-10-23T12:32:04.576Z,16.80
2022-10-23T12:35:20.909Z,12.23
2022-10-23T12:38:25.700Z,14.70
2022-10-23T12:41:29.202Z,14.73
2022-10-23T12:44:31.896Z,15.88
2022-10-23T12:47:34.437Z,18.10
2022-10-23T12:50:37.488Z,15.37
2022-10-23T12:53:39.745Z,16.20
2022-10-23T12:56:42.432Z,18.58
2022-10-23T12:59:45.957Z,16.65
2022-10-23T13:03:01.539Z,10.90
2022-10-23T13:06:04.155Z,11.10
2022-10-23T13:09:10.875Z,25.27
2022-10-23T13:12:25.757Z,12.80
2022-10-23T13:15:40.856Z,12.45
2022-10-23T13:18:43.993Z,11.38
2022-10-23T13:21:47.239Z,13.23
2022-10-23T13:24:50.026Z,11.97
2022-10-23T13:28:07.777Z,12.35
2022-10-23T13:31:10.464Z,13.27
2022-10-23T13:34:19.244Z,18.80
2022-10-23T13:37:31.160Z,15.80
2022-10-23T13:40:33.445Z,17.93
2022-10-23T13:43:36.030Z,17.95
2022-10-23T13:46:38.413Z,16.98
2022-10-23T13:49:40.855Z,19.33
2022-10-23T13:52:43.512Z,15.87
2022-10-23T13:55:48.364Z,16.97
2022-10-23T13:58:50.982Z,14.63
2022-10-23T14:01:54.699Z,13.07
2022-10-23T14:04:56.944Z,19.95
2022-10-23T14:07:59.114Z,14.27
2022-10-23T14:11:01.527Z,12.60
2022-10-23T14:14:04.608Z,12.38
2022-10-23T14:17:07.495Z,14.23
2022-10-23T14:20:10.705Z,34.17
2022-10-23T14:23:13.789Z,33.87
2022-10-23T14:26:20.195Z,18.03
2022-10-23T14:29:24.290Z,14.57
2022-10-23T14:32:27.156Z,21.83
2022-10-23T14:35:29.416Z,16.60
2022-10-23T14:38:31.933Z,16.80
2022-10-23T14:41:34.191Z,17.27
2022-10-23T14:44:36.401Z,14.73
2022-10-23T14:47:39.133Z,13.63
2022-10-23T14:50:49.333Z,15.27
2022-10-23T14:53:58.862Z,22.30
2022-10-23T14:57:01.331Z,17.47
2022-10-23T15:00:05.568Z,15.50
2022-10-23T15:03:07.890Z,15.82
2022-10-23T15:06:11.811Z,13.25
2022-10-23T15:09:16.313Z,14.53
2022-10-23T15:12:19.046Z,14.57
2022-10-23T15:15:22.760Z,14.00
2022-10-23T15:18:27.707Z,13.68
2022-10-23T15:21:30.506Z,13.50
2022-10-23T15:24:32.720Z,16.33
2022-10-23T15:27:35.064Z,15.77
2022-10-23T15:30:44.187Z,16.13
2022-10-23T15:33:46.886Z,20.48
2022-10-23T15:36:50.362Z,20.70
2022-10-23T15:39:56.161Z,15.93
2022-10-23T15:43:00.667Z,15.07
2022-10-23T15:46:02.849Z,16.33
2022-10-23T15:49:05.298Z,15.88
2022-10-23T15:55:12.623Z,15.97
2022-10-23T15:58:15.079Z,16.23
2022-10-23T16:01:17.509Z,15.90
2022-10-23T16:04:20.481Z,14.90
2022-10-23T16:07:23.055Z,16.58
2022-10-23T16:10:25.340Z,16.03
2022-10-23T16:13:28.418Z,16.63
2022-10-23T16:16:32.424Z,15.15
2022-10-23T16:19:35.484Z,19.27
2022-10-23T16:22:41.342Z,20.23
2022-10-23T16:25:46.877Z,23.00
2022-10-23T16:28:57.202Z,23.03
2022-10-23T16:32:00.015Z,19.52
2022-10-23T16:35:02.693Z,21.42
2022-10-23T16:38:16.019Z,21.08
2022-10-23T16:41:18.949Z,23.97
2022-10-23T16:44:33.818Z,18.30
2022-10-23T16:47:39.456Z,20.45
2022-10-23T16:50:42.484Z,18.90
2022-10-23T16:53:45.333Z,20.25
2022-10-23T16:56:48.666Z,20.20
2022-10-23T16:59:51.266Z,18.87
2022-10-23T17:02:54.461Z,21.10
2022-10-23T17:06:06.164Z,19.88
2022-10-23T17:09:12.468Z,20.48
2022-10-23T17:12:16.813Z,24.47
2022-10-23T17:15:21.632Z,22.10
2022-10-23T17:18:24.834Z,25.10
2022-10-23T17:21:34.682Z,23.60
2022-10-23T17:24:39.826Z,24.45
2022-10-23T17:27:43.352Z,24.97
2022-10-23T17:30:46.831Z,20.90
2022-10-23T17:33:52.895Z,21.17
2022-10-23T17:36:57.129Z,30.25
2022-10-23T17:40:03.195Z,23.33
2022-10-23T17:43:06.884Z,22.47
2022-10-23T17:46:12.124Z,25.60
2022-10-23T17:49:18.498Z,26.35
2022-10-23T17:52:21.895Z,35.65
2022-10-23T17:55:28.676Z,26.75
2022-10-23T17:58:36.278Z,26.23
2022-10-23T18:01:40.179Z,25.13
2022-10-23T18:04:43.422Z,25.05
2022-10-23T18:07:46.329Z,18.95
2022-10-23T18:10:49.989Z,25.67
2022-10-23T18:13:53.055Z,17.23
2022-10-23T18:16:55.720Z,19.23
2022-10-23T18:20:02.829Z,15.15
2022-10-23T18:23:05.287Z,18.17
2022-10-23T18:26:21.063Z,26.40
2022-10-23T18:29:23.794Z,16.60
2022-10-23T18:32:26.781Z,16.67
2022-10-23T18:35:29.479Z,14.80
2022-10-23T18:38:32.349Z,15.60
2022-10-23T18:41:39.098Z,40.90
2022-10-23T18:44:47.713Z,22.90
2022-10-23T18:47:51.416Z,9.70
2022-10-23T18:50:55.026Z,8.27
2022-10-23T18:54:00.063Z,8.93
2022-10-23T18:57:03.159Z,9.48
2022-10-23T19:00:09.422Z,8.80
2022-10-23T19:03:16.203Z,9.00
2022-10-23T19:06:20.471Z,10.10
2022-10-23T19:09:23.259Z,9.93
2022-10-23T19:12:25.907Z,11.70
2022-10-23T19:15:28.856Z,10.60
2022-10-23T19:18:33.147Z,9.47
2022-10-23T19:21:37.587Z,8.98
2022-10-23T19:24:42.897Z,8.82
2022-10-23T19:27:46.397Z,9.15
2022-10-23T19:30:49.331Z,8.53
2022-10-23T19:33:51.966Z,8.37
2022-10-23T19:36:55.720Z,13.93
2022-10-23T19:39:58.625Z,11.88
2022-10-23T19:43:01.953Z,9.27
2022-10-23T19:46:09.498Z,9.10
2022-10-23T19:49:15.723Z,8.50
2022-10-23T19:52:18.832Z,8.65
2022-10-23T19:55:21.446Z,9.43
2022-10-23T19:58:24.070Z,9.95
2022-10-23T20:01:27.326Z,13.27
2022-10-23T20:04:30.211Z,9.07
2022-10-23T20:07:33.498Z,10.43
2022-10-23T20:10:42.104Z,24.83
2022-10-23T20:13:44.843Z,15.43
2022-10-23T20:16:50.116Z,14.33
2022-10-23T20:19:56.978Z,10.43
2022-10-23T20:22:59.724Z,10.85
2022-10-23T20:26:10.066Z,12.65
2022-10-23T20:29:13.027Z,15.80
2022-10-23T20:32:16.055Z,14.57
2022-10-23T20:35:18.720Z,12.07
2022-10-23T20:38:23.128Z,12.63
2022-10-23T20:41:27.158Z,13.93
2022-10-23T20:44:30.220Z,11.77
2022-10-23T20:47:33.282Z,12.30
2022-10-23T20:50:36.492Z,12.20
2022-10-23T20:53:39.917Z,14.73
2022-10-23T20:56:42.565Z,14.18
2022-10-23T20:59:45.077Z,15.85
2022-10-23T21:02:49.900Z,15.37
2022-10-23T21:05:54.261Z,14.03
2022-10-23T21:09:01.591Z,15.38
2022-10-23T21:12:04.164Z,17.13
2022-10-23T21:15:07.206Z,17.95
2022-10-23T21:18:27.475Z,18.50
2022-10-23T21:21:37.232Z,19.87
2022-10-23T21:24:39.925Z,22.98
2022-10-23T21:27:42.361Z,23.92
2022-10-23T21:30:44.793Z,20.08
2022-10-23T21:33:48.655Z,17.13
2022-10-23T21:37:11.805Z,19.10
2022-10-23T21:40:14.634Z,16.35
2022-10-23T21:43:17.828Z,17.45
2022-10-23T21:46:20.920Z,15.18
2022-10-23T21:49:23.914Z,17.57
2022-10-23T21:52:29.152Z,16.93
2022-10-23T21:55:32.353Z,16.30
2022-10-23T21:58:34.720Z,34.72
2022-10-23T22:01:36.989Z,21.73
2022-10-23T22:04:41.201Z,16.27
2022-10-23T22:07:47.027Z,15.27
2022-10-23T22:10:49.253Z,15.70
2022-10-23T22:13:51.822Z,16.20
2022-10-23T22:16:54.669Z,15.88
2022-10-23T22:19:57.040Z,14.87
2022-10-23T22:22:59.183Z,18.60
2022-10-23T22:26:18.079Z,15.27
2022-10-23T22:29:27.914Z,15.30
2022-10-23T22:32:30.236Z,15.90
2022-10-23T22:35:35.132Z,17.10
2022-10-23T22:38:37.511Z,15.93
2022-10-23T22:41:39.839Z,17.73
2022-10-23T22:44:42.719Z,17.25
2022-10-23T22:47:45.968Z,17.38
2022-10-23T22:50:49.008Z,17.63
2022-10-23T22:53:52.201Z,16.77
2022-10-23T22:56:55.197Z,16.40
2022-10-23T22:59:58.086Z,16.67
2022-10-23T23:03:01.139Z,17.95
2022-10-23T23:06:06.220Z,17.20
2022-10-23T23:09:09.552Z,16.37
2022-10-23T23:12:14.040Z,16.48
2022-10-23T23:15:16.568Z,17.35
2022-10-23T23:18:19.005Z,18.92
2022-10-23T23:21:22.050Z,17.93
2022-10-23T23:24:25.231Z,18.00
2022-10-23T23:27:27.749Z,19.95
2022-10-23T23:30:29.895Z,20.08
2022-10-23T23:33:32.051Z,18.65
2022-10-23T23:36:34.973Z,19.10
2022-10-23T23:39:37.190Z,20.00
2022-10-23T23:42:39.404Z,19.23
2022-10-23T23:45:41.538Z,16.77
2022-10-23T23:48:47.894Z,17.60
2022-10-23T23:51:50.095Z,17.57
2022-10-23T23:54:52.456Z,18.67
2022-10-23T23:57:54.590Z,21.90
